Tue, 19 Oct 2021 02:50:56 UTC

Information for RPM fastlz-0.1.0-0.4.20070619svnrev12.fc26.x86_64.rpm

ID9003475
Namefastlz
Version0.1.0
Release0.4.20070619svnrev12.fc26
Epoch
Archx86_64
SummaryPortable real-time compression library
DescriptionFastLZ is a lossless data compression library designed for real-time compression and decompression. It favors speed over compression ratio. Decompression requires no memory. Decompression algorithm is very simple, and thus extremely fast.
Build Time2017-02-10 15:39:50 GMT
Size13,426
bd5b137c9995709d377f6cb9e6f511e6
LicenseMIT
Buildrootf26-build-7600815-694161
Provides
fastlz = 0.1.0-0.4.20070619svnrev12.fc26
fastlz(x86-64) = 0.1.0-0.4.20070619svnrev12.fc26
libfastlz.so.0()(64bit)
Obsoletes No Obsoletes
Conflicts No Conflicts
Requires
/sbin/ldconfig
/sbin/ldconfig
libc.so.6()(64bit)
libc.so.6(GLIBC_2.2.5)(64bit)
libc.so.6(GLIBC_2.4)(64bit)
rpmlib(CompressedFileNames) <= 3.0.4-1
rpmlib(FileDigests) <= 4.6.0-1
rpmlib(PayloadFilesHavePrefix) <= 4.0-1
rpmlib(PayloadIsXz) <= 5.2-1
rtld(GNU_HASH)
Recommends No Recommends
Suggests No Suggests
Supplements No Supplements
Enhances No Enhances
Files
1 through 3 of 3
Name ascending sort Size
/usr/lib64/libfastlz.so.010,968
/usr/share/licenses/fastlz4,096
/usr/share/licenses/fastlz/LICENSE1,226
Component of
Page:
1 through 50 of 188 >>>
Buildroot descending sort Created State
f26-build-12556635-917680 2018-05-28 07:00:05 expired
f26-build-12351611-906232 2018-05-07 02:47:47 expired
f26-build-12333415-905460 2018-05-05 14:30:40 expired
f26-build-12291613-902329 2018-05-01 11:52:25 expired
f26-build-12262668-900759 2018-04-29 09:27:29 expired
f26-build-12147690-892910 2018-04-16 06:29:08 expired
f26-build-12053485-889006 2018-04-07 09:40:34 expired
f26-build-12051382-889006 2018-04-07 04:35:19 expired
f26-build-11935678-882565 2018-03-25 17:05:39 expired
f26-build-11914979-882379 2018-03-24 08:51:55 expired
f26-build-11841930-878336 2018-03-18 05:19:14 expired
f26-build-11780876-874546 2018-03-12 05:53:59 expired
f26-build-11775382-874435 2018-03-11 19:34:05 expired
f26-build-11765224-874049 2018-03-11 02:34:10 expired
f26-build-11506359-857425 2018-02-15 23:00:33 expired
f26-build-11503358-857038 2018-02-15 13:00:25 expired
f26-build-11469324-854731 2018-02-13 05:49:21 expired
f26-build-11317873-850328 2018-02-05 01:46:20 expired
f26-build-11293189-849614 2018-02-03 09:45:26 expired
f26-build-11213997-845538 2018-01-28 16:14:45 expired
f26-build-11210010-845538 2018-01-28 11:10:21 expired
f26-build-11104800-841847 2018-01-20 07:29:31 expired
f26-build-11093473-841337 2018-01-19 06:48:58 expired
f26-build-10987028-835400 2018-01-08 13:53:20 expired
f26-build-10832975-826210 2017-12-17 12:40:33 expired
f26-build-10827117-826210 2017-12-17 03:50:41 expired
f26-build-10752318-823828 2017-12-09 08:43:39 expired
f26-build-10751788-823800 2017-12-09 05:41:58 expired
f26-build-10716593-822684 2017-12-04 07:54:50 expired
f26-build-10712451-822684 2017-12-04 02:22:50 expired
f26-build-10604084-817993 2017-11-23 11:22:01 expired
f26-build-10600427-817924 2017-11-23 04:45:15 expired
f26-build-10585836-816999 2017-11-21 07:25:27 expired
f26-build-10554697-815784 2017-11-18 23:05:02 expired
f26-build-10462503-811481 2017-11-10 01:40:49 expired
f26-build-10444194-810001 2017-11-08 04:41:01 expired
f26-build-10417891-808422 2017-11-05 05:40:04 expired
f26-build-10409592-808169 2017-11-04 13:44:18 expired
f26-build-10344461-805058 2017-10-29 04:19:42 expired
f26-build-10332537-804923 2017-10-28 11:59:40 expired
f26-build-10228485-800269 2017-10-19 09:52:27 expired
f26-build-10225853-800269 2017-10-19 05:28:03 expired
f26-build-10124854-794780 2017-10-08 08:37:47 expired
f26-build-10118103-794525 2017-10-07 19:37:57 expired
f26-build-10063668-791668 2017-10-02 04:13:42 expired
f26-build-10019405-790336 2017-09-28 07:24:48 expired
f26-build-9985787-788943 2017-09-24 04:37:45 expired
f26-build-9982895-788684 2017-09-23 17:29:23 expired
f26-build-9889612-785369 2017-09-14 20:26:08 expired
f26-build-9889460-785369 2017-09-14 20:11:46 expired